createdAt,value
2023-02-12T00:01:09.947Z,7.75
2023-02-12T00:03:38.171Z,8.00
2023-02-12T00:06:05.480Z,9.02
2023-02-12T00:08:32.199Z,3.83
2023-02-12T00:10:58.893Z,3.17
2023-02-12T00:13:26.062Z,2.70
2023-02-12T00:15:53.041Z,3.53
2023-02-12T00:18:19.903Z,1.60
2023-02-12T00:20:46.621Z,3.15
2023-02-12T00:23:13.461Z,8.75
2023-02-12T00:25:43.266Z,4.25
2023-02-12T00:28:10.240Z,3.90
2023-02-12T00:30:37.176Z,2.50
2023-02-12T00:33:03.977Z,1.83
2023-02-12T00:35:30.755Z,2.53
2023-02-12T00:37:57.649Z,1.98
2023-02-12T00:40:24.492Z,2.92
2023-02-12T00:42:51.189Z,2.28
2023-02-12T00:45:18.171Z,1.92
2023-02-12T00:47:44.961Z,2.92
2023-02-12T00:50:12.116Z,2.70
2023-02-12T00:52:38.837Z,1.10
2023-02-12T00:55:05.927Z,2.47
2023-02-12T00:57:33.554Z,2.95
2023-02-12T01:00:00.330Z,2.97
2023-02-12T01:02:27.104Z,2.63
2023-02-12T01:04:53.876Z,2.00
2023-02-12T01:07:20.598Z,2.25
2023-02-12T01:09:47.502Z,1.85
2023-02-12T01:12:14.407Z,1.92
2023-02-12T01:14:41.137Z,5.75
2023-02-12T01:17:09.791Z,2.05
2023-02-12T01:19:36.523Z,3.63
2023-02-12T01:22:03.390Z,1.55
2023-02-12T01:24:30.165Z,1.55
2023-02-12T01:26:56.899Z,5.05
2023-02-12T01:29:23.624Z,1.80
2023-02-12T01:31:50.494Z,2.22
2023-02-12T01:34:17.355Z,1.42
2023-02-12T01:36:44.145Z,2.22
2023-02-12T01:39:11.835Z,3.95
2023-02-12T01:41:43.102Z,2.80
2023-02-12T01:44:19.389Z,4.13
2023-02-12T01:46:48.119Z,1.77
2023-02-12T01:49:21.647Z,2.75
2023-02-12T01:51:52.893Z,1.90
2023-02-12T01:54:27.452Z,3.67
2023-02-12T01:56:54.932Z,3.78
2023-02-12T01:59:24.561Z,2.88
2023-02-12T02:01:51.805Z,1.40
2023-02-12T02:04:23.653Z,4.50
2023-02-12T02:07:03.208Z,4.13
2023-02-12T02:09:33.674Z,5.38
2023-02-12T02:12:20.378Z,1.80
2023-02-12T02:14:48.525Z,4.05
2023-02-12T02:17:51.941Z,5.82
2023-02-12T02:20:49.645Z,4.32
2023-02-12T02:23:22.346Z,3.00
2023-02-12T02:25:58.428Z,1.35
2023-02-12T02:28:43.571Z,1.13
2023-02-12T02:31:19.191Z,1.38
2023-02-12T02:33:52.081Z,4.38
2023-02-12T02:36:58.029Z,1.90
2023-02-12T02:39:53.898Z,2.17
2023-02-12T02:42:27.968Z,3.95
2023-02-12T02:45:13.686Z,2.95
2023-02-12T02:47:45.980Z,3.50
2023-02-12T02:50:18.299Z,2.97
2023-02-12T02:53:06.423Z,4.55
2023-02-12T02:55:41.128Z,1.98
2023-02-12T02:58:14.653Z,1.95
2023-02-12T03:00:49.342Z,4.07
2023-02-12T03:03:25.555Z,1.27
2023-02-12T03:05:59.331Z,2.25
2023-02-12T03:08:34.280Z,2.22
2023-02-12T03:11:31.592Z,2.10
2023-02-12T03:14:13.207Z,2.53
2023-02-12T03:16:48.599Z,3.20
2023-02-12T03:19:23.056Z,1.92
2023-02-12T03:22:04.386Z,2.92
2023-02-12T03:24:36.864Z,7.32
2023-02-12T03:27:10.045Z,3.05
2023-02-12T03:29:37.345Z,1.30
2023-02-12T03:32:15.921Z,5.72
2023-02-12T03:34:51.808Z,1.15
2023-02-12T03:37:30.729Z,1.58
2023-02-12T03:40:28.012Z,2.88
2023-02-12T03:43:00.772Z,2.78
2023-02-12T03:45:53.016Z,3.83
2023-02-12T03:48:25.996Z,1.73
2023-02-12T03:51:00.250Z,3.72
2023-02-12T03:53:28.844Z,1.52
2023-02-12T03:56:12.852Z,1.38
2023-02-12T03:58:41.656Z,3.10
2023-02-12T04:01:08.979Z,2.72
2023-02-12T04:03:36.334Z,2.22
2023-02-12T04:06:03.143Z,5.03
2023-02-12T04:08:31.092Z,6.20
2023-02-12T04:11:44.512Z,1.23
2023-02-12T04:14:50.465Z,1.35
2023-02-12T04:17:32.800Z,1.80
2023-02-12T04:20:05.674Z,2.42
2023-02-12T04:23:11.787Z,4.63
2023-02-12T04:26:32.808Z,5.30
2023-02-12T04:29:14.335Z,2.80
2023-02-12T04:32:00.007Z,1.92
2023-02-12T04:34:39.793Z,1.02
2023-02-12T04:37:45.592Z,0.93
2023-02-12T04:40:14.920Z,1.80
2023-02-12T04:42:47.335Z,2.53
2023-02-12T04:47:42.120Z,2.42
2023-02-12T04:50:09.397Z,1.85
2023-02-12T04:52:36.141Z,2.35
2023-02-12T04:55:02.861Z,2.33
2023-02-12T04:57:29.715Z,4.65
2023-02-12T04:59:56.635Z,2.40
2023-02-12T05:02:23.436Z,2.30
2023-02-12T05:04:51.050Z,2.63
2023-02-12T05:07:17.805Z,4.28
2023-02-12T05:09:44.517Z,2.13
2023-02-12T05:12:11.298Z,2.17
2023-02-12T05:14:38.111Z,2.03
2023-02-12T05:17:04.832Z,1.42
2023-02-12T05:19:31.595Z,1.48
2023-02-12T05:21:58.391Z,1.88
2023-02-12T05:24:25.998Z,0.85
2023-02-12T05:26:53.102Z,3.03
2023-02-12T05:29:20.037Z,3.85
2023-02-12T05:31:46.853Z,2.63
2023-02-12T05:34:14.123Z,0.70
2023-02-12T05:36:41.263Z,4.47
2023-02-12T05:39:07.980Z,2.47
2023-02-12T05:41:37.825Z,2.60
2023-02-12T05:44:06.685Z,1.17
2023-02-12T05:46:34.008Z,5.00
2023-02-12T05:49:00.803Z,1.50
2023-02-12T05:51:27.968Z,1.65
2023-02-12T05:54:03.821Z,1.95
2023-02-12T05:56:43.764Z,1.88
2023-02-12T05:59:17.094Z,2.83
2023-02-12T06:01:45.705Z,2.45
2023-02-12T06:04:24.280Z,0.70
2023-02-12T06:06:52.509Z,0.70
2023-02-12T06:09:19.727Z,5.07
2023-02-12T06:11:46.515Z,1.85
2023-02-12T06:14:16.774Z,1.98
2023-02-12T06:16:51.506Z,1.48
2023-02-12T06:19:19.336Z,2.72
2023-02-12T06:21:46.468Z,2.60
2023-02-12T06:24:15.115Z,1.67
2023-02-12T06:26:42.664Z,2.15
2023-02-12T06:29:10.532Z,1.48
2023-02-12T06:31:38.142Z,1.20
2023-02-12T06:34:09.941Z,1.33
2023-02-12T06:36:38.413Z,1.80
2023-02-12T06:39:05.697Z,2.70
2023-02-12T06:41:32.559Z,0.73
2023-02-12T06:43:59.455Z,3.28
2023-02-12T06:46:26.255Z,2.83
2023-02-12T06:48:57.842Z,3.88
2023-02-12T06:51:25.397Z,1.50
2023-02-12T06:53:53.492Z,3.10
2023-02-12T06:56:21.755Z,5.85
2023-02-12T06:58:58.037Z,1.83
2023-02-12T07:01:27.899Z,2.95
2023-02-12T07:03:57.497Z,1.33
2023-02-12T07:06:25.413Z,1.73
2023-02-12T07:08:52.738Z,1.10
2023-02-12T07:11:24.297Z,5.25
2023-02-12T07:13:51.138Z,0.47
2023-02-12T07:16:18.339Z,3.70
2023-02-12T07:18:46.122Z,2.15
2023-02-12T07:21:15.013Z,3.60
2023-02-12T07:23:42.536Z,1.65
2023-02-12T07:26:12.569Z,2.20
2023-02-12T07:28:40.618Z,1.27
2023-02-12T07:31:10.120Z,2.33
2023-02-12T07:33:38.310Z,2.60
2023-02-12T07:36:07.670Z,2.38
2023-02-12T07:38:39.578Z,6.53
2023-02-12T07:41:10.507Z,0.88
2023-02-12T07:43:37.926Z,0.47
2023-02-12T07:46:13.740Z,3.22
2023-02-12T07:48:40.621Z,1.23
2023-02-12T07:51:09.637Z,0.90
2023-02-12T07:53:36.826Z,2.25
2023-02-12T07:56:18.351Z,1.63
2023-02-12T07:58:46.909Z,0.60
2023-02-12T08:01:13.841Z,3.63
2023-02-12T08:03:41.018Z,1.02
2023-02-12T08:06:14.583Z,2.63
2023-02-12T08:08:41.491Z,2.08
2023-02-12T08:11:10.910Z,7.15
2023-02-12T08:13:38.762Z,3.58
2023-02-12T08:16:08.895Z,3.60
2023-02-12T08:18:36.118Z,0.93
2023-02-12T08:21:18.262Z,1.45
2023-02-12T08:23:45.563Z,2.70
2023-02-12T08:26:18.844Z,1.42
2023-02-12T08:28:51.840Z,1.35
2023-02-12T08:31:21.477Z,5.28
2023-02-12T08:33:51.799Z,3.67
2023-02-12T08:36:24.324Z,4.38
2023-02-12T08:38:51.756Z,5.13
2023-02-12T08:41:26.641Z,1.65
2023-02-12T08:43:55.738Z,0.93
2023-02-12T08:46:25.758Z,4.50
2023-02-12T08:48:57.664Z,5.03
2023-02-12T08:51:27.358Z,3.05
2023-02-12T08:53:59.590Z,2.65
2023-02-12T08:56:27.453Z,2.63
2023-02-12T08:58:54.166Z,3.15
2023-02-12T09:01:23.401Z,1.90
2023-02-12T09:03:51.391Z,4.28
2023-02-12T09:06:20.361Z,19.38
2023-02-12T09:08:47.737Z,5.75
2023-02-12T09:11:17.312Z,1.65
2023-02-12T09:13:45.829Z,3.90
2023-02-12T09:16:13.755Z,1.48
2023-02-12T09:18:40.865Z,5.40
2023-02-12T09:21:13.878Z,7.75
2023-02-12T09:23:41.133Z,5.55
2023-02-12T09:26:10.603Z,9.23
2023-02-12T09:28:38.868Z,5.85
2023-02-12T09:31:11.874Z,2.40
2023-02-12T09:33:39.026Z,3.95
2023-02-12T09:36:08.738Z,3.13
2023-02-12T09:38:36.160Z,6.43
2023-02-12T09:41:16.167Z,3.40
2023-02-12T09:44:09.300Z,3.55
2023-02-12T09:47:06.284Z,4.13
2023-02-12T09:49:54.487Z,6.03
2023-02-12T09:52:26.882Z,3.65
2023-02-12T09:57:31.784Z,3.38
2023-02-12T10:00:03.544Z,5.18
2023-02-12T10:02:30.679Z,3.13
2023-02-12T10:05:02.038Z,3.78
2023-02-12T10:07:37.866Z,6.03
2023-02-12T10:10:29.514Z,6.63
2023-02-12T10:13:12.212Z,6.27
2023-02-12T10:16:01.816Z,5.45
2023-02-12T10:18:34.206Z,7.82
2023-02-12T10:24:12.580Z,9.63
2023-02-12T10:26:44.321Z,5.63
2023-02-12T10:29:24.409Z,6.70
2023-02-12T10:34:41.693Z,3.38
2023-02-12T10:37:37.912Z,6.25
2023-02-12T10:40:32.788Z,4.38
2023-02-12T10:43:01.696Z,4.63
2023-02-12T10:45:39.874Z,5.93
2023-02-12T10:48:09.393Z,7.50
2023-02-12T10:50:42.829Z,14.85
2023-02-12T10:53:22.057Z,10.70
2023-02-12T10:55:48.882Z,13.80
2023-02-12T10:58:22.106Z,6.88
2023-02-12T11:01:00.336Z,12.30
2023-02-12T11:03:37.648Z,6.63
2023-02-12T11:06:17.374Z,7.30
2023-02-12T11:08:44.918Z,9.32
2023-02-12T11:11:20.430Z,5.03
2023-02-12T11:13:54.856Z,6.93
2023-02-12T11:16:33.708Z,9.73
2023-02-12T11:19:18.169Z,9.77
2023-02-12T11:21:45.067Z,4.03
2023-02-12T11:24:31.943Z,4.00
2023-02-12T11:27:12.019Z,7.53
2023-02-12T11:29:39.369Z,9.45
2023-02-12T11:32:09.127Z,7.63
2023-02-12T11:34:36.439Z,2.67
2023-02-12T11:37:05.199Z,4.68
2023-02-12T11:39:38.203Z,3.63
2023-02-12T11:42:16.544Z,4.40
2023-02-12T11:44:48.794Z,5.68
2023-02-12T11:50:02.870Z,6.53
2023-02-12T11:52:35.570Z,6.15
2023-02-12T11:55:18.848Z,7.57
2023-02-12T11:57:51.694Z,4.40
2023-02-12T12:00:21.373Z,6.75
2023-02-12T12:03:12.938Z,4.65
2023-02-12T12:05:47.238Z,8.75
2023-02-12T12:08:33.594Z,6.80
2023-02-12T12:11:11.047Z,5.38
2023-02-12T12:13:45.942Z,6.13
2023-02-12T12:16:46.345Z,5.35
2023-02-12T12:19:38.918Z,4.80
2023-02-12T12:24:52.329Z,9.10
2023-02-12T12:27:40.297Z,10.68
2023-02-12T12:30:17.805Z,8.48
2023-02-12T12:32:47.662Z,9.10
2023-02-12T12:35:19.400Z,7.15
2023-02-12T12:37:58.522Z,6.88
2023-02-12T12:40:34.055Z,7.53
2023-02-12T12:43:14.507Z,7.20
2023-02-12T12:45:59.024Z,7.85
2023-02-12T12:48:46.245Z,10.15
2023-02-12T12:51:18.666Z,9.27
2023-02-12T12:54:08.045Z,8.93
2023-02-12T12:56:56.348Z,9.02
2023-02-12T12:59:43.971Z,8.68
2023-02-12T13:02:41.600Z,8.35
2023-02-12T13:05:23.949Z,9.85
2023-02-12T13:08:14.938Z,5.03
2023-02-12T13:10:50.906Z,8.82
2023-02-12T13:13:26.428Z,7.85
2023-02-12T13:16:25.219Z,7.38
2023-02-12T13:18:54.748Z,4.47
2023-02-12T13:21:46.490Z,8.00
2023-02-12T13:24:16.092Z,17.02
2023-02-12T13:26:47.392Z,3.38
2023-02-12T13:29:21.092Z,5.87
2023-02-12T13:31:54.528Z,5.88
2023-02-12T13:34:23.128Z,5.63
2023-02-12T13:36:50.433Z,7.75
2023-02-12T13:39:43.086Z,6.35
2023-02-12T13:42:27.864Z,8.50
2023-02-12T13:45:01.939Z,14.63
2023-02-12T13:47:45.103Z,10.20
2023-02-12T13:50:20.840Z,5.82
2023-02-12T13:53:01.699Z,8.18
2023-02-12T13:55:41.730Z,3.17
2023-02-12T13:58:46.891Z,6.57
2023-02-12T14:01:38.644Z,8.00
2023-02-12T14:04:14.831Z,7.07
2023-02-12T14:06:59.797Z,8.55
2023-02-12T14:09:38.414Z,6.93
2023-02-12T14:12:11.962Z,5.72
2023-02-12T14:14:48.714Z,2.50
2023-02-12T14:17:33.397Z,3.08
2023-02-12T14:20:28.487Z,6.22
2023-02-12T14:23:02.109Z,12.25
2023-02-12T14:25:42.256Z,3.92
2023-02-12T14:28:25.648Z,4.97
2023-02-12T14:31:20.934Z,7.22
2023-02-12T14:33:50.731Z,5.00
2023-02-12T14:36:32.717Z,17.92
2023-02-12T14:39:19.651Z,11.47
2023-02-12T14:42:15.889Z,13.18
2023-02-12T14:45:05.165Z,7.05
2023-02-12T14:47:31.851Z,15.93
2023-02-12T14:50:17.118Z,12.05
2023-02-12T14:52:51.986Z,9.90
2023-02-12T14:55:30.363Z,7.55
2023-02-12T14:58:20.213Z,10.85
2023-02-12T15:00:49.753Z,8.38
2023-02-12T15:03:30.726Z,11.30
2023-02-12T15:06:21.238Z,8.38
2023-02-12T15:09:00.337Z,16.20
2023-02-12T15:11:33.081Z,5.93
2023-02-12T15:14:35.326Z,7.13
2023-02-12T15:17:12.105Z,5.90
2023-02-12T15:19:56.185Z,6.45
2023-02-12T15:22:29.725Z,10.70
2023-02-12T15:25:29.345Z,9.43
2023-02-12T15:27:59.603Z,10.70
2023-02-12T15:30:30.540Z,9.32
2023-02-12T15:32:59.632Z,10.15
2023-02-12T15:35:32.624Z,5.93
2023-02-12T15:38:01.263Z,5.72
2023-02-12T15:40:30.636Z,6.00
2023-02-12T15:43:00.008Z,7.45
2023-02-12T15:45:29.146Z,5.38
2023-02-12T15:48:02.033Z,3.50
2023-02-12T15:50:30.801Z,7.05
2023-02-12T15:52:57.945Z,4.38
2023-02-12T15:55:27.713Z,3.13
2023-02-12T15:57:58.406Z,4.85
2023-02-12T16:00:45.098Z,6.88
2023-02-12T16:03:26.866Z,8.95
2023-02-12T16:05:58.223Z,14.05
2023-02-12T16:08:25.494Z,7.97
2023-02-12T16:10:55.922Z,12.25
2023-02-12T16:13:34.618Z,7.53
2023-02-12T16:16:13.537Z,9.57
2023-02-12T16:19:07.216Z,4.50
2023-02-12T16:21:38.254Z,4.65
2023-02-12T16:24:06.252Z,5.75
2023-02-12T16:26:33.079Z,6.53
2023-02-12T16:28:59.851Z,10.15
2023-02-12T16:31:27.874Z,7.05
2023-02-12T16:33:58.650Z,6.65
2023-02-12T16:36:25.409Z,6.30
2023-02-12T16:38:54.654Z,7.88
2023-02-12T16:41:27.183Z,8.20
2023-02-12T16:44:00.022Z,8.10
2023-02-12T16:46:32.361Z,6.90
2023-02-12T16:49:00.865Z,3.47
2023-02-12T16:51:29.600Z,2.03
2023-02-12T16:54:01.393Z,3.83
2023-02-12T16:56:38.839Z,6.90
2023-02-12T16:59:05.847Z,10.32
2023-02-12T17:01:35.668Z,5.38
2023-02-12T17:04:08.897Z,5.43
2023-02-12T17:06:35.628Z,7.10
2023-02-12T17:09:02.437Z,4.65
2023-02-12T17:11:29.641Z,6.45
2023-02-12T17:13:56.813Z,8.02
2023-02-12T17:16:32.313Z,5.90
2023-02-12T17:19:00.278Z,16.88
2023-02-12T17:21:37.910Z,5.10
2023-02-12T17:24:26.366Z,7.13
2023-02-12T17:26:54.074Z,12.60
2023-02-12T17:29:22.971Z,8.88
2023-02-12T17:31:53.775Z,5.28
2023-02-12T17:34:21.289Z,8.18
2023-02-12T17:36:48.705Z,8.25
2023-02-12T17:39:16.688Z,9.50
2023-02-12T17:41:44.331Z,9.93
2023-02-12T17:44:13.398Z,5.95
2023-02-12T17:46:40.148Z,16.30
2023-02-12T17:49:07.115Z,19.90
2023-02-12T17:51:33.859Z,22.45
2023-02-12T17:54:00.649Z,33.72
2023-02-12T17:56:27.813Z,21.83
2023-02-12T17:58:54.606Z,34.85
2023-02-12T18:01:23.182Z,121.22
2023-02-12T18:03:53.714Z,87.50
2023-02-12T18:06:29.600Z,84.90
2023-02-12T18:08:58.036Z,55.13
2023-02-12T18:11:25.702Z,54.80
2023-02-12T18:13:53.986Z,85.72
2023-02-12T18:16:20.894Z,54.35
2023-02-12T18:18:48.266Z,37.22
2023-02-12T18:21:16.261Z,32.22
2023-02-12T18:23:43.870Z,20.35
2023-02-12T18:26:18.201Z,11.57
2023-02-12T18:28:45.066Z,18.58
2023-02-12T18:31:12.680Z,15.80
2023-02-12T18:33:39.726Z,13.90
2023-02-12T18:36:09.398Z,14.57
2023-02-12T18:38:38.078Z,13.38
2023-02-12T18:41:09.709Z,12.75
2023-02-12T18:43:37.170Z,7.82
2023-02-12T18:46:12.462Z,8.20
2023-02-12T18:48:39.230Z,8.43
2023-02-12T18:51:08.337Z,18.85
2023-02-12T18:53:36.369Z,16.23
2023-02-12T18:56:08.172Z,21.13
2023-02-12T18:58:35.985Z,19.42
2023-02-12T19:01:16.302Z,25.38
2023-02-12T19:03:44.362Z,23.67
2023-02-12T19:06:12.003Z,18.35
2023-02-12T19:08:38.884Z,15.10
2023-02-12T19:11:07.242Z,12.77
2023-02-12T19:13:34.099Z,16.67
2023-02-12T19:16:06.780Z,13.98
2023-02-12T19:18:33.558Z,16.10
2023-02-12T19:21:00.902Z,14.60
2023-02-12T19:23:27.616Z,12.85
2023-02-12T19:25:54.407Z,17.27
2023-02-12T19:28:21.154Z,15.82
2023-02-12T19:30:47.986Z,12.63
2023-02-12T19:33:15.345Z,7.95
2023-02-12T19:35:43.250Z,15.23
2023-02-12T19:38:09.965Z,13.50
2023-02-12T19:40:36.712Z,11.30
2023-02-12T19:43:03.390Z,21.23
2023-02-12T19:45:32.564Z,14.52
2023-02-12T19:47:59.348Z,22.45
2023-02-12T19:50:26.028Z,17.70
2023-02-12T19:52:52.695Z,10.25
2023-02-12T19:55:19.511Z,16.35
2023-02-12T19:57:48.041Z,13.57
2023-02-12T20:00:15.160Z,11.23
2023-02-12T20:02:43.937Z,12.95
2023-02-12T20:05:10.898Z,12.65
2023-02-12T20:07:37.790Z,10.93
2023-02-12T20:10:04.790Z,13.90
2023-02-12T20:12:31.529Z,11.60
2023-02-12T20:15:00.990Z,10.38
2023-02-12T20:17:27.716Z,10.98
2023-02-12T20:19:54.506Z,8.55
2023-02-12T20:22:22.605Z,11.13
2023-02-12T20:24:51.108Z,15.15
2023-02-12T20:27:17.782Z,7.80
2023-02-12T20:29:44.530Z,8.35
2023-02-12T20:32:12.060Z,10.18
2023-02-12T20:34:50.183Z,10.95
2023-02-12T20:37:18.958Z,10.73
2023-02-12T20:39:45.718Z,9.35
2023-02-12T20:42:12.539Z,11.25
2023-02-12T20:44:39.302Z,13.80
2023-02-12T20:47:05.986Z,12.43
2023-02-12T20:49:32.743Z,11.82
2023-02-12T20:51:59.636Z,8.15
2023-02-12T20:54:26.386Z,8.30
2023-02-12T20:56:55.482Z,10.13
2023-02-12T20:59:22.259Z,9.88
2023-02-12T21:01:49.346Z,14.70
2023-02-12T21:04:18.084Z,11.23
2023-02-12T21:06:45.973Z,10.18
2023-02-12T21:09:14.401Z,11.55
2023-02-12T21:11:43.043Z,13.07
2023-02-12T21:14:26.012Z,12.65
2023-02-12T21:16:55.102Z,8.75
2023-02-12T21:19:22.637Z,13.10
2023-02-12T21:21:49.604Z,13.60
2023-02-12T21:24:21.849Z,11.55
2023-02-12T21:29:15.580Z,9.18
2023-02-12T21:31:47.458Z,12.52
2023-02-12T21:34:18.359Z,9.40
2023-02-12T21:36:47.129Z,11.00
2023-02-12T21:39:17.030Z,11.23
2023-02-12T21:41:44.291Z,9.07
2023-02-12T21:44:14.835Z,11.68
2023-02-12T21:46:41.859Z,12.00
2023-02-12T21:49:12.155Z,12.75
2023-02-12T21:51:41.640Z,7.22
2023-02-12T21:54:12.555Z,13.90
2023-02-12T21:56:41.321Z,9.65
2023-02-12T21:59:09.458Z,12.65
2023-02-12T22:01:39.052Z,12.73
2023-02-12T22:04:06.900Z,13.13
2023-02-12T22:06:37.480Z,11.73
2023-02-12T22:09:09.255Z,13.02
2023-02-12T22:11:37.903Z,17.42
2023-02-12T22:14:05.476Z,19.77
2023-02-12T22:16:32.532Z,12.63
2023-02-12T22:19:01.905Z,14.70
2023-02-12T22:21:31.582Z,16.40
2023-02-12T22:24:01.836Z,16.58
2023-02-12T22:26:30.352Z,12.48
2023-02-12T22:28:59.792Z,15.65
2023-02-12T22:31:31.989Z,11.73
2023-02-12T22:36:28.213Z,19.25
2023-02-12T22:38:57.474Z,16.77
2023-02-12T22:41:24.283Z,18.45
2023-02-12T22:43:51.758Z,19.02
2023-02-12T22:46:19.606Z,13.77
2023-02-12T22:48:46.931Z,19.90
2023-02-12T22:51:25.894Z,18.25
2023-02-12T22:53:53.857Z,24.63
2023-02-12T22:56:21.039Z,22.50
2023-02-12T22:58:48.068Z,17.45
2023-02-12T23:01:18.044Z,18.50
2023-02-12T23:03:45.921Z,15.88
2023-02-12T23:06:15.784Z,22.38
2023-02-12T23:08:43.893Z,19.00
2023-02-12T23:11:11.979Z,15.73
2023-02-12T23:13:39.938Z,19.42
2023-02-12T23:16:07.050Z,15.70
2023-02-12T23:18:34.250Z,18.20
2023-02-12T23:21:01.652Z,21.25
2023-02-12T23:23:28.677Z,19.92
2023-02-12T23:25:55.768Z,17.75
2023-02-12T23:28:23.202Z,18.80
2023-02-12T23:30:51.511Z,15.82
2023-02-12T23:33:19.831Z,20.15
2023-02-12T23:35:47.961Z,18.25
2023-02-12T23:38:15.626Z,20.25
2023-02-12T23:40:43.044Z,20.85
2023-02-12T23:43:09.883Z,21.05
2023-02-12T23:45:36.814Z,15.82
2023-02-12T23:48:03.797Z,14.75
2023-02-12T23:50:30.554Z,15.18
2023-02-12T23:52:58.911Z,14.70
2023-02-12T23:55:25.726Z,13.35
2023-02-12T23:57:52.555Z,15.75
